sensor_id;sensor_type;location;lat;lon;timestamp;P1;durP1;ratioP1;P2;durP2;ratioP2
28309;SDS011;15571;50.974;13.936;2022-10-16T00:51:51;28.42;;;21.50;;
28309;SDS011;15571;50.974;13.936;2022-10-16T00:54:55;31.40;;;22.85;;
28309;SDS011;15571;50.974;13.936;2022-10-16T00:58:02;28.67;;;21.40;;
28309;SDS011;15571;50.974;13.936;2022-10-16T01:01:08;30.40;;;21.60;;
28309;SDS011;15571;50.974;13.936;2022-10-16T01:04:10;32.20;;;23.42;;
28309;SDS011;15571;50.974;13.936;2022-10-16T01:07:16;29.80;;;22.38;;
28309;SDS011;15571;50.974;13.936;2022-10-16T01:10:39;32.28;;;23.42;;
28309;SDS011;15571;50.974;13.936;2022-10-16T01:13:51;33.42;;;23.48;;
28309;SDS011;15571;50.974;13.936;2022-10-16T01:16:57;31.70;;;23.80;;
28309;SDS011;15571;50.974;13.936;2022-10-16T01:20:06;30.15;;;23.20;;
28309;SDS011;15571;50.974;13.936;2022-10-16T01:23:25;30.77;;;23.70;;
28309;SDS011;15571;50.974;13.936;2022-10-16T01:26:37;29.88;;;22.45;;
28309;SDS011;15571;50.974;13.936;2022-10-16T01:33:08;27.13;;;20.95;;
28309;SDS011;15571;50.974;13.936;2022-10-16T01:36:18;29.77;;;20.98;;
28309;SDS011;15571;50.974;13.936;2022-10-16T01:39:28;27.48;;;21.58;;
28309;SDS011;15571;50.974;13.936;2022-10-16T01:42:34;27.15;;;20.13;;
28309;SDS011;15571;50.974;13.936;2022-10-16T01:45:43;26.88;;;20.65;;
28309;SDS011;15571;50.974;13.936;2022-10-16T01:48:47;29.00;;;21.33;;
28309;SDS011;15571;50.974;13.936;2022-10-16T01:51:53;27.13;;;20.58;;
28309;SDS011;15571;50.974;13.936;2022-10-16T01:54:58;26.30;;;19.25;;
28309;SDS011;15571;50.974;13.936;2022-10-16T01:58:05;26.83;;;20.67;;
28309;SDS011;15571;50.974;13.936;2022-10-16T02:01:11;26.58;;;20.08;;
28309;SDS011;15571;50.974;13.936;2022-10-16T02:04:18;26.05;;;20.70;;
28309;SDS011;15571;50.974;13.936;2022-10-16T02:07:25;24.83;;;19.00;;
28309;SDS011;15571;50.974;13.936;2022-10-16T02:10:28;28.02;;;20.50;;
28309;SDS011;15571;50.974;13.936;2022-10-16T02:13:33;25.48;;;19.35;;
28309;SDS011;15571;50.974;13.936;2022-10-16T02:16:43;26.38;;;19.88;;
28309;SDS011;15571;50.974;13.936;2022-10-16T02:19:57;28.85;;;19.58;;
28309;SDS011;15571;50.974;13.936;2022-10-16T02:23:03;25.65;;;19.30;;
28309;SDS011;15571;50.974;13.936;2022-10-16T02:26:12;22.48;;;18.35;;
28309;SDS011;15571;50.974;13.936;2022-10-16T02:29:22;21.77;;;17.92;;
28309;SDS011;15571;50.974;13.936;2022-10-16T02:32:30;20.92;;;16.80;;
28309;SDS011;15571;50.974;13.936;2022-10-16T02:35:37;22.58;;;18.05;;
28309;SDS011;15571;50.974;13.936;2022-10-16T02:38:41;21.85;;;17.50;;
28309;SDS011;15571;50.974;13.936;2022-10-16T02:41:44;21.95;;;17.85;;
28309;SDS011;15571;50.974;13.936;2022-10-16T02:44:49;21.02;;;17.75;;
28309;SDS011;15571;50.974;13.936;2022-10-16T02:47:53;22.80;;;17.35;;
28309;SDS011;15571;50.974;13.936;2022-10-16T02:50:56;22.40;;;18.38;;
28309;SDS011;15571;50.974;13.936;2022-10-16T02:53:59;22.80;;;18.67;;
28309;SDS011;15571;50.974;13.936;2022-10-16T02:57:02;22.38;;;18.63;;
28309;SDS011;15571;50.974;13.936;2022-10-16T03:00:05;24.08;;;18.35;;
28309;SDS011;15571;50.974;13.936;2022-10-16T03:03:13;22.95;;;19.10;;
28309;SDS011;15571;50.974;13.936;2022-10-16T03:06:15;22.45;;;18.55;;
28309;SDS011;15571;50.974;13.936;2022-10-16T03:09:18;24.80;;;19.50;;
28309;SDS011;15571;50.974;13.936;2022-10-16T03:12:23;22.15;;;18.40;;
28309;SDS011;15571;50.974;13.936;2022-10-16T03:15:26;21.38;;;17.92;;
28309;SDS011;15571;50.974;13.936;2022-10-16T03:18:33;21.50;;;17.15;;
28309;SDS011;15571;50.974;13.936;2022-10-16T03:21:41;23.20;;;17.73;;
28309;SDS011;15571;50.974;13.936;2022-10-16T03:24:44;22.23;;;16.77;;
28309;SDS011;15571;50.974;13.936;2022-10-16T03:27:46;21.02;;;16.83;;
28309;SDS011;15571;50.974;13.936;2022-10-16T03:30:49;22.35;;;17.33;;
28309;SDS011;15571;50.974;13.936;2022-10-16T03:33:53;18.83;;;16.23;;
28309;SDS011;15571;50.974;13.936;2022-10-16T03:36:55;19.35;;;16.35;;
28309;SDS011;15571;50.974;13.936;2022-10-16T03:39:58;19.85;;;16.02;;
28309;SDS011;15571;50.974;13.936;2022-10-16T03:43:01;19.27;;;16.20;;
28309;SDS011;15571;50.974;13.936;2022-10-16T03:46:03;20.35;;;16.60;;
28309;SDS011;15571;50.974;13.936;2022-10-16T03:49:07;19.40;;;16.52;;
28309;SDS011;15571;50.974;13.936;2022-10-16T03:52:10;19.27;;;15.88;;
28309;SDS011;15571;50.974;13.936;2022-10-16T03:55:13;20.85;;;16.38;;
28309;SDS011;15571;50.974;13.936;2022-10-16T03:58:16;21.25;;;16.77;;
28309;SDS011;15571;50.974;13.936;2022-10-16T04:01:20;19.80;;;16.05;;
28309;SDS011;15571;50.974;13.936;2022-10-16T04:04:24;19.75;;;15.73;;
28309;SDS011;15571;50.974;13.936;2022-10-16T04:07:27;19.55;;;15.88;;
28309;SDS011;15571;50.974;13.936;2022-10-16T04:10:30;18.27;;;15.48;;
28309;SDS011;15571;50.974;13.936;2022-10-16T04:13:33;17.85;;;15.25;;
28309;SDS011;15571;50.974;13.936;2022-10-16T04:16:35;15.82;;;14.15;;
28309;SDS011;15571;50.974;13.936;2022-10-16T04:19:39;17.00;;;13.85;;
28309;SDS011;15571;50.974;13.936;2022-10-16T04:22:44;16.98;;;14.63;;
28309;SDS011;15571;50.974;13.936;2022-10-16T04:25:50;15.98;;;12.45;;
28309;SDS011;15571;50.974;13.936;2022-10-16T04:28:53;15.18;;;13.15;;
28309;SDS011;15571;50.974;13.936;2022-10-16T04:31:55;15.77;;;14.07;;
28309;SDS011;15571;50.974;13.936;2022-10-16T04:34:59;15.43;;;13.00;;
28309;SDS011;15571;50.974;13.936;2022-10-16T04:38:03;16.45;;;13.27;;
28309;SDS011;15571;50.974;13.936;2022-10-16T04:41:05;15.93;;;14.20;;
28309;SDS011;15571;50.974;13.936;2022-10-16T04:44:11;15.65;;;13.48;;
28309;SDS011;15571;50.974;13.936;2022-10-16T04:47:21;16.98;;;14.10;;
28309;SDS011;15571;50.974;13.936;2022-10-16T04:50:29;16.23;;;13.95;;
28309;SDS011;15571;50.974;13.936;2022-10-16T04:53:40;17.33;;;12.95;;
28309;SDS011;15571;50.974;13.936;2022-10-16T04:56:43;17.00;;;13.32;;
28309;SDS011;15571;50.974;13.936;2022-10-16T04:59:48;15.07;;;13.15;;
28309;SDS011;15571;50.974;13.936;2022-10-16T05:02:53;14.82;;;13.23;;
28309;SDS011;15571;50.974;13.936;2022-10-16T05:05:57;14.43;;;12.70;;
28309;SDS011;15571;50.974;13.936;2022-10-16T05:08:59;14.27;;;12.80;;
28309;SDS011;15571;50.974;13.936;2022-10-16T05:12:05;17.17;;;15.15;;
28309;SDS011;15571;50.974;13.936;2022-10-16T05:15:12;18.60;;;15.85;;
28309;SDS011;15571;50.974;13.936;2022-10-16T05:18:15;22.30;;;18.45;;
28309;SDS011;15571;50.974;13.936;2022-10-16T05:21:20;23.80;;;18.73;;
28309;SDS011;15571;50.974;13.936;2022-10-16T05:24:25;26.20;;;20.55;;
28309;SDS011;15571;50.974;13.936;2022-10-16T05:27:28;27.80;;;20.60;;
28309;SDS011;15571;50.974;13.936;2022-10-16T05:30:33;27.65;;;21.52;;
28309;SDS011;15571;50.974;13.936;2022-10-16T05:33:38;25.70;;;20.60;;
28309;SDS011;15571;50.974;13.936;2022-10-16T05:36:42;27.10;;;21.45;;
28309;SDS011;15571;50.974;13.936;2022-10-16T05:39:45;27.50;;;21.40;;
28309;SDS011;15571;50.974;13.936;2022-10-16T05:42:54;27.58;;;21.73;;
28309;SDS011;15571;50.974;13.936;2022-10-16T05:45:58;29.15;;;22.77;;
28309;SDS011;15571;50.974;13.936;2022-10-16T05:49:03;28.80;;;22.77;;
28309;SDS011;15571;50.974;13.936;2022-10-16T05:52:07;26.45;;;21.95;;
28309;SDS011;15571;50.974;13.936;2022-10-16T05:55:12;27.98;;;21.33;;
28309;SDS011;15571;50.974;13.936;2022-10-16T05:58:17;27.25;;;21.73;;
28309;SDS011;15571;50.974;13.936;2022-10-16T06:01:20;25.95;;;21.15;;
28309;SDS011;15571;50.974;13.936;2022-10-16T06:04:24;25.88;;;20.58;;
28309;SDS011;15571;50.974;13.936;2022-10-16T06:07:28;24.38;;;20.00;;
28309;SDS011;15571;50.974;13.936;2022-10-16T06:10:31;23.33;;;19.50;;
28309;SDS011;15571;50.974;13.936;2022-10-16T06:13:33;27.30;;;20.58;;
28309;SDS011;15571;50.974;13.936;2022-10-16T06:16:39;26.67;;;20.50;;
28309;SDS011;15571;50.974;13.936;2022-10-16T06:19:45;23.60;;;19.92;;
28309;SDS011;15571;50.974;13.936;2022-10-16T06:22:49;24.60;;;18.70;;
28309;SDS011;15571;50.974;13.936;2022-10-16T06:25:52;25.58;;;19.80;;
28309;SDS011;15571;50.974;13.936;2022-10-16T06:28:54;23.67;;;18.85;;
28309;SDS011;15571;50.974;13.936;2022-10-16T06:31:57;22.52;;;19.10;;
28309;SDS011;15571;50.974;13.936;2022-10-16T06:35:00;24.58;;;18.80;;
28309;SDS011;15571;50.974;13.936;2022-10-16T06:38:04;21.45;;;18.08;;
28309;SDS011;15571;50.974;13.936;2022-10-16T06:41:10;22.40;;;18.83;;
28309;SDS011;15571;50.974;13.936;2022-10-16T06:44:17;25.45;;;18.55;;
28309;SDS011;15571;50.974;13.936;2022-10-16T06:47:19;23.27;;;18.83;;
28309;SDS011;15571;50.974;13.936;2022-10-16T06:50:22;23.73;;;19.40;;
28309;SDS011;15571;50.974;13.936;2022-10-16T06:53:27;21.70;;;19.05;;
28309;SDS011;15571;50.974;13.936;2022-10-16T06:56:33;24.85;;;20.25;;
28309;SDS011;15571;50.974;13.936;2022-10-16T06:59:36;22.55;;;18.15;;
28309;SDS011;15571;50.974;13.936;2022-10-16T07:02:39;21.85;;;19.10;;
28309;SDS011;15571;50.974;13.936;2022-10-16T07:05:42;23.23;;;19.25;;
28309;SDS011;15571;50.974;13.936;2022-10-16T07:08:46;21.75;;;19.02;;
28309;SDS011;15571;50.974;13.936;2022-10-16T07:11:49;22.73;;;19.45;;
28309;SDS011;15571;50.974;13.936;2022-10-16T07:14:52;21.42;;;19.13;;
28309;SDS011;15571;50.974;13.936;2022-10-16T07:17:59;23.15;;;18.17;;
28309;SDS011;15571;50.974;13.936;2022-10-16T07:21:05;22.13;;;18.35;;
28309;SDS011;15571;50.974;13.936;2022-10-16T07:24:13;22.45;;;18.58;;
28309;SDS011;15571;50.974;13.936;2022-10-16T07:27:17;20.60;;;18.40;;
28309;SDS011;15571;50.974;13.936;2022-10-16T07:30:25;21.80;;;19.15;;
28309;SDS011;15571;50.974;13.936;2022-10-16T07:33:31;20.65;;;16.88;;
28309;SDS011;15571;50.974;13.936;2022-10-16T07:36:33;19.48;;;16.88;;
28309;SDS011;15571;50.974;13.936;2022-10-16T07:39:37;20.55;;;18.40;;
28309;SDS011;15571;50.974;13.936;2022-10-16T07:42:40;18.80;;;16.55;;
28309;SDS011;15571;50.974;13.936;2022-10-16T07:45:46;18.48;;;16.45;;
28309;SDS011;15571;50.974;13.936;2022-10-16T07:48:53;16.60;;;14.90;;
28309;SDS011;15571;50.974;13.936;2022-10-16T07:51:58;19.05;;;14.77;;
28309;SDS011;15571;50.974;13.936;2022-10-16T07:55:02;16.85;;;14.40;;
28309;SDS011;15571;50.974;13.936;2022-10-16T07:58:05;16.33;;;14.35;;
28309;SDS011;15571;50.974;13.936;2022-10-16T08:01:09;15.35;;;13.75;;
28309;SDS011;15571;50.974;13.936;2022-10-16T08:04:13;16.75;;;14.00;;
28309;SDS011;15571;50.974;13.936;2022-10-16T08:07:17;15.90;;;14.30;;
28309;SDS011;15571;50.974;13.936;2022-10-16T08:10:22;18.95;;;14.43;;
28309;SDS011;15571;50.974;13.936;2022-10-16T08:13:26;16.15;;;14.05;;
28309;SDS011;15571;50.974;13.936;2022-10-16T08:16:31;18.55;;;15.82;;
28309;SDS011;15571;50.974;13.936;2022-10-16T08:19:33;19.48;;;16.45;;
28309;SDS011;15571;50.974;13.936;2022-10-16T08:22:40;20.85;;;16.65;;
28309;SDS011;15571;50.974;13.936;2022-10-16T08:25:44;19.50;;;17.33;;
28309;SDS011;15571;50.974;13.936;2022-10-16T08:28:50;20.98;;;17.25;;
28309;SDS011;15571;50.974;13.936;2022-10-16T08:31:53;19.33;;;16.75;;
28309;SDS011;15571;50.974;13.936;2022-10-16T08:34:56;18.02;;;16.13;;
28309;SDS011;15571;50.974;13.936;2022-10-16T08:37:58;17.23;;;15.45;;
28309;SDS011;15571;50.974;13.936;2022-10-16T08:41:17;17.17;;;15.38;;
28309;SDS011;15571;50.974;13.936;2022-10-16T08:44:40;17.73;;;15.45;;
28309;SDS011;15571;50.974;13.936;2022-10-16T08:48:14;18.48;;;15.85;;
28309;SDS011;15571;50.974;13.936;2022-10-16T08:51:23;16.10;;;14.40;;
28309;SDS011;15571;50.974;13.936;2022-10-16T08:54:29;16.65;;;14.85;;
28309;SDS011;15571;50.974;13.936;2022-10-16T08:57:39;16.65;;;14.68;;
28309;SDS011;15571;50.974;13.936;2022-10-16T09:00:48;15.80;;;14.15;;
28309;SDS011;15571;50.974;13.936;2022-10-16T09:04:04;16.58;;;14.88;;
28309;SDS011;15571;50.974;13.936;2022-10-16T09:07:26;17.10;;;15.38;;
28309;SDS011;15571;50.974;13.936;2022-10-16T09:10:38;17.98;;;16.08;;
28309;SDS011;15571;50.974;13.936;2022-10-16T09:13:54;19.85;;;16.02;;
28309;SDS011;15571;50.974;13.936;2022-10-16T09:17:11;18.65;;;16.52;;
28309;SDS011;15571;50.974;13.936;2022-10-16T09:20:35;19.30;;;17.30;;
28309;SDS011;15571;50.974;13.936;2022-10-16T09:23:45;19.55;;;17.30;;
28309;SDS011;15571;50.974;13.936;2022-10-16T09:26:49;17.20;;;15.43;;
28309;SDS011;15571;50.974;13.936;2022-10-16T09:29:58;17.60;;;15.73;;
28309;SDS011;15571;50.974;13.936;2022-10-16T09:33:01;17.83;;;15.93;;
28309;SDS011;15571;50.974;13.936;2022-10-16T09:36:04;18.08;;;15.65;;
28309;SDS011;15571;50.974;13.936;2022-10-16T09:39:08;16.60;;;14.82;;
28309;SDS011;15571;50.974;13.936;2022-10-16T09:42:14;15.57;;;14.00;;
28309;SDS011;15571;50.974;13.936;2022-10-16T09:45:24;14.55;;;13.05;;
28309;SDS011;15571;50.974;13.936;2022-10-16T09:48:28;13.85;;;12.45;;
28309;SDS011;15571;50.974;13.936;2022-10-16T09:51:37;12.20;;;10.90;;
28309;SDS011;15571;50.974;13.936;2022-10-16T09:54:48;13.23;;;11.82;;
28309;SDS011;15571;50.974;13.936;2022-10-16T09:57:52;12.18;;;10.90;;
28309;SDS011;15571;50.974;13.936;2022-10-16T10:01:00;12.40;;;11.15;;
28309;SDS011;15571;50.974;13.936;2022-10-16T10:04:05;11.35;;;10.25;;
28309;SDS011;15571;50.974;13.936;2022-10-16T10:07:15;11.32;;;10.23;;
28309;SDS011;15571;50.974;13.936;2022-10-16T10:10:21;11.50;;;10.13;;
28309;SDS011;15571;50.974;13.936;2022-10-16T10:13:25;12.68;;;11.38;;
28309;SDS011;15571;50.974;13.936;2022-10-16T10:16:32;14.18;;;12.68;;
28309;SDS011;15571;50.974;13.936;2022-10-16T10:19:37;15.77;;;13.18;;
28309;SDS011;15571;50.974;13.936;2022-10-16T10:22:41;14.52;;;12.45;;
28309;SDS011;15571;50.974;13.936;2022-10-16T10:25:49;15.25;;;13.48;;
28309;SDS011;15571;50.974;13.936;2022-10-16T10:29:01;13.38;;;12.02;;
28309;SDS011;15571;50.974;13.936;2022-10-16T10:32:22;14.38;;;12.68;;
28309;SDS011;15571;50.974;13.936;2022-10-16T10:35:39;13.25;;;11.95;;
28309;SDS011;15571;50.974;13.936;2022-10-16T10:38:48;12.77;;;11.48;;
28309;SDS011;15571;50.974;13.936;2022-10-16T10:42:00;12.10;;;10.90;;
28309;SDS011;15571;50.974;13.936;2022-10-16T10:45:16;11.80;;;10.45;;
28309;SDS011;15571;50.974;13.936;2022-10-16T10:48:30;13.23;;;11.07;;
28309;SDS011;15571;50.974;13.936;2022-10-16T10:51:50;13.30;;;11.93;;
28309;SDS011;15571;50.974;13.936;2022-10-16T10:55:09;12.45;;;11.25;;
28309;SDS011;15571;50.974;13.936;2022-10-16T10:58:29;13.82;;;11.20;;
28309;SDS011;15571;50.974;13.936;2022-10-16T11:01:48;12.60;;;11.30;;
28309;SDS011;15571;50.974;13.936;2022-10-16T11:05:01;14.07;;;12.57;;
28309;SDS011;15571;50.974;13.936;2022-10-16T11:08:27;14.30;;;12.90;;
28309;SDS011;15571;50.974;13.936;2022-10-16T11:11:40;15.10;;;13.57;;
28309;SDS011;15571;50.974;13.936;2022-10-16T11:14:58;15.95;;;13.82;;
28309;SDS011;15571;50.974;13.936;2022-10-16T11:18:17;15.43;;;13.93;;
28309;SDS011;15571;50.974;13.936;2022-10-16T11:21:32;15.80;;;14.13;;
28309;SDS011;15571;50.974;13.936;2022-10-16T11:24:45;15.30;;;13.82;;
28309;SDS011;15571;50.974;13.936;2022-10-16T11:28:11;15.25;;;13.82;;
28309;SDS011;15571;50.974;13.936;2022-10-16T11:31:29;14.73;;;12.38;;
28309;SDS011;15571;50.974;13.936;2022-10-16T11:34:48;14.52;;;13.15;;
28309;SDS011;15571;50.974;13.936;2022-10-16T11:38:09;13.65;;;12.30;;
28309;SDS011;15571;50.974;13.936;2022-10-16T11:41:22;14.15;;;12.85;;
28309;SDS011;15571;50.974;13.936;2022-10-16T11:44:34;14.10;;;12.60;;
28309;SDS011;15571;50.974;13.936;2022-10-16T11:47:54;14.00;;;12.70;;
28309;SDS011;15571;50.974;13.936;2022-10-16T11:51:13;12.25;;;10.98;;
28309;SDS011;15571;50.974;13.936;2022-10-16T11:54:26;14.32;;;12.52;;
28309;SDS011;15571;50.974;13.936;2022-10-16T11:57:41;13.38;;;12.07;;
28309;SDS011;15571;50.974;13.936;2022-10-16T12:00:51;12.75;;;11.55;;
28309;SDS011;15571;50.974;13.936;2022-10-16T12:04:05;12.48;;;11.25;;
28309;SDS011;15571;50.974;13.936;2022-10-16T12:07:24;12.75;;;11.45;;
28309;SDS011;15571;50.974;13.936;2022-10-16T12:10:52;12.80;;;11.55;;
28309;SDS011;15571;50.974;13.936;2022-10-16T12:14:05;12.32;;;11.18;;
28309;SDS011;15571;50.974;13.936;2022-10-16T12:17:25;11.32;;;10.07;;
28309;SDS011;15571;50.974;13.936;2022-10-16T12:20:53;11.02;;;10.10;;
28309;SDS011;15571;50.974;13.936;2022-10-16T15:52:25;5.03;;;4.18;;
28309;SDS011;15571;50.974;13.936;2022-10-16T15:55:29;7.70;;;4.63;;
28309;SDS011;15571;50.974;13.936;2022-10-16T15:58:32;7.40;;;5.20;;
28309;SDS011;15571;50.974;13.936;2022-10-16T16:01:41;9.88;;;7.80;;
28309;SDS011;15571;50.974;13.936;2022-10-16T16:04:44;13.65;;;11.32;;
28309;SDS011;15571;50.974;13.936;2022-10-16T16:07:48;14.10;;;11.07;;
28309;SDS011;15571;50.974;13.936;2022-10-16T16:10:59;18.42;;;10.95;;
28309;SDS011;15571;50.974;13.936;2022-10-16T16:14:04;14.98;;;11.35;;
28309;SDS011;15571;50.974;13.936;2022-10-16T16:17:06;9.93;;;8.93;;
28309;SDS011;15571;50.974;13.936;2022-10-16T16:20:19;6.03;;;5.53;;
28309;SDS011;15571;50.974;13.936;2022-10-16T16:23:46;5.75;;;5.18;;
28309;SDS011;15571;50.974;13.936;2022-10-16T16:26:54;6.38;;;5.78;;
28309;SDS011;15571;50.974;13.936;2022-10-16T16:29:56;10.77;;;7.28;;
28309;SDS011;15571;50.974;13.936;2022-10-16T16:33:02;9.80;;;8.80;;
28309;SDS011;15571;50.974;13.936;2022-10-16T16:36:05;9.50;;;7.75;;
28309;SDS011;15571;50.974;13.936;2022-10-16T16:39:09;7.63;;;5.82;;
28309;SDS011;15571;50.974;13.936;2022-10-16T16:42:12;6.35;;;5.78;;
28309;SDS011;15571;50.974;13.936;2022-10-16T16:45:14;7.18;;;5.80;;
28309;SDS011;15571;50.974;13.936;2022-10-16T16:48:17;6.45;;;5.32;;
28309;SDS011;15571;50.974;13.936;2022-10-16T16:51:20;7.18;;;6.07;;
28309;SDS011;15571;50.974;13.936;2022-10-16T16:54:24;12.52;;;6.63;;
28309;SDS011;15571;50.974;13.936;2022-10-16T16:57:27;11.80;;;7.10;;
28309;SDS011;15571;50.974;13.936;2022-10-16T17:00:30;9.65;;;7.03;;
28309;SDS011;15571;50.974;13.936;2022-10-16T17:03:33;14.77;;;7.82;;
28309;SDS011;15571;50.974;13.936;2022-10-16T17:06:36;8.18;;;6.32;;
28309;SDS011;15571;50.974;13.936;2022-10-16T17:09:42;9.70;;;6.03;;
28309;SDS011;15571;50.974;13.936;2022-10-16T17:12:55;10.18;;;5.88;;
28309;SDS011;15571;50.974;13.936;2022-10-16T17:15:59;10.35;;;6.13;;
28309;SDS011;15571;50.974;13.936;2022-10-16T17:19:05;10.93;;;7.18;;
28309;SDS011;15571;50.974;13.936;2022-10-16T17:22:18;12.75;;;8.73;;
28309;SDS011;15571;50.974;13.936;2022-10-16T17:25:27;9.27;;;7.45;;
28309;SDS011;15571;50.974;13.936;2022-10-16T17:28:34;9.15;;;7.03;;
28309;SDS011;15571;50.974;13.936;2022-10-16T17:31:36;11.15;;;8.55;;
28309;SDS011;15571;50.974;13.936;2022-10-16T17:34:44;10.93;;;9.07;;
28309;SDS011;15571;50.974;13.936;2022-10-16T17:37:46;13.77;;;8.40;;
28309;SDS011;15571;50.974;13.936;2022-10-16T17:40:50;8.27;;;7.40;;
28309;SDS011;15571;50.974;13.936;2022-10-16T17:43:52;8.27;;;6.60;;
28309;SDS011;15571;50.974;13.936;2022-10-16T17:46:57;8.93;;;6.20;;
28309;SDS011;15571;50.974;13.936;2022-10-16T17:49:59;6.10;;;5.45;;
28309;SDS011;15571;50.974;13.936;2022-10-16T17:53:02;9.45;;;5.97;;
28309;SDS011;15571;50.974;13.936;2022-10-16T17:56:09;10.70;;;7.03;;
28309;SDS011;15571;50.974;13.936;2022-10-16T17:59:15;11.23;;;7.05;;
28309;SDS011;15571;50.974;13.936;2022-10-16T18:02:22;6.72;;;6.00;;
28309;SDS011;15571;50.974;13.936;2022-10-16T18:05:25;7.18;;;5.97;;
28309;SDS011;15571;50.974;13.936;2022-10-16T18:08:27;6.43;;;5.50;;
28309;SDS011;15571;50.974;13.936;2022-10-16T18:11:31;6.97;;;5.35;;
28309;SDS011;15571;50.974;13.936;2022-10-16T20:19:58;6.40;;;5.22;;
28309;SDS011;15571;50.974;13.936;2022-10-16T20:23:03;5.13;;;4.70;;
28309;SDS011;15571;50.974;13.936;2022-10-16T20:26:06;6.15;;;5.55;;
28309;SDS011;15571;50.974;13.936;2022-10-16T20:29:11;5.90;;;5.00;;
28309;SDS011;15571;50.974;13.936;2022-10-16T20:32:51;5.45;;;4.78;;
28309;SDS011;15571;50.974;13.936;2022-10-16T20:36:04;6.13;;;5.00;;
28309;SDS011;15571;50.974;13.936;2022-10-16T20:39:14;5.40;;;4.20;;
28309;SDS011;15571;50.974;13.936;2022-10-16T20:42:32;6.07;;;4.63;;
28309;SDS011;15571;50.974;13.936;2022-10-16T20:45:58;5.60;;;4.88;;
28309;SDS011;15571;50.974;13.936;2022-10-16T20:49:10;5.75;;;4.32;;
28309;SDS011;15571;50.974;13.936;2022-10-16T20:52:15;5.80;;;4.65;;
28309;SDS011;15571;50.974;13.936;2022-10-16T20:55:21;8.20;;;4.70;;
28309;SDS011;15571;50.974;13.936;2022-10-16T20:58:32;8.98;;;5.50;;
28309;SDS011;15571;50.974;13.936;2022-10-16T21:01:34;5.05;;;4.57;;
28309;SDS011;15571;50.974;13.936;2022-10-16T21:04:38;5.50;;;4.85;;
28309;SDS011;15571;50.974;13.936;2022-10-16T21:07:45;6.63;;;4.95;;
28309;SDS011;15571;50.974;13.936;2022-10-16T21:10:51;5.85;;;4.80;;
28309;SDS011;15571;50.974;13.936;2022-10-16T21:13:54;4.90;;;4.38;;
28309;SDS011;15571;50.974;13.936;2022-10-16T21:17:00;5.10;;;4.60;;
28309;SDS011;15571;50.974;13.936;2022-10-16T21:20:14;6.20;;;5.13;;
28309;SDS011;15571;50.974;13.936;2022-10-16T21:23:34;5.78;;;4.75;;
28309;SDS011;15571;50.974;13.936;2022-10-16T21:26:36;6.35;;;5.03;;
28309;SDS011;15571;50.974;13.936;2022-10-16T21:30:10;4.88;;;4.40;;
28309;SDS011;15571;50.974;13.936;2022-10-16T21:33:16;5.80;;;4.65;;
28309;SDS011;15571;50.974;13.936;2022-10-16T21:36:19;8.07;;;5.68;;
28309;SDS011;15571;50.974;13.936;2022-10-16T21:39:25;5.35;;;4.50;;
28309;SDS011;15571;50.974;13.936;2022-10-16T21:42:27;5.28;;;4.20;;
28309;SDS011;15571;50.974;13.936;2022-10-16T21:45:30;5.00;;;4.20;;
28309;SDS011;15571;50.974;13.936;2022-10-16T21:48:35;7.32;;;4.40;;
28309;SDS011;15571;50.974;13.936;2022-10-16T21:51:53;5.25;;;4.72;;
28309;SDS011;15571;50.974;13.936;2022-10-16T21:55:16;5.82;;;4.57;;
28309;SDS011;15571;50.974;13.936;2022-10-16T21:58:20;7.13;;;4.80;;
28309;SDS011;15571;50.974;13.936;2022-10-16T22:01:28;6.55;;;4.80;;
28309;SDS011;15571;50.974;13.936;2022-10-16T22:04:30;6.13;;;4.78;;
28309;SDS011;15571;50.974;13.936;2022-10-16T22:07:36;7.35;;;4.80;;
28309;SDS011;15571;50.974;13.936;2022-10-16T22:10:43;7.28;;;4.78;;
28309;SDS011;15571;50.974;13.936;2022-10-16T22:13:49;5.00;;;4.43;;
28309;SDS011;15571;50.974;13.936;2022-10-16T22:16:52;5.57;;;4.55;;
28309;SDS011;15571;50.974;13.936;2022-10-16T22:19:58;7.57;;;4.68;;
28309;SDS011;15571;50.974;13.936;2022-10-16T22:23:01;7.38;;;4.63;;
28309;SDS011;15571;50.974;13.936;2022-10-16T22:26:07;6.57;;;4.53;;
28309;SDS011;15571;50.974;13.936;2022-10-16T22:29:12;4.93;;;4.30;;
28309;SDS011;15571;50.974;13.936;2022-10-16T22:32:15;8.38;;;4.90;;
28309;SDS011;15571;50.974;13.936;2022-10-16T22:35:23;7.22;;;4.47;;
28309;SDS011;15571;50.974;13.936;2022-10-16T22:38:35;5.43;;;4.47;;
28309;SDS011;15571;50.974;13.936;2022-10-16T22:41:41;6.13;;;4.53;;
28309;SDS011;15571;50.974;13.936;2022-10-16T22:44:46;5.97;;;5.07;;
28309;SDS011;15571;50.974;13.936;2022-10-16T22:47:51;6.72;;;4.40;;
28309;SDS011;15571;50.974;13.936;2022-10-16T22:50:54;5.72;;;4.50;;
28309;SDS011;15571;50.974;13.936;2022-10-16T22:53:57;5.60;;;4.07;;
28309;SDS011;15571;50.974;13.936;2022-10-16T22:57:08;5.75;;;4.43;;
28309;SDS011;15571;50.974;13.936;2022-10-16T23:00:22;5.68;;;4.80;;
28309;SDS011;15571;50.974;13.936;2022-10-16T23:03:28;6.47;;;5.22;;
28309;SDS011;15571;50.974;13.936;2022-10-16T23:06:31;7.03;;;4.40;;
28309;SDS011;15571;50.974;13.936;2022-10-16T23:09:34;7.45;;;4.47;;
28309;SDS011;15571;50.974;13.936;2022-10-16T23:12:39;6.68;;;4.32;;
28309;SDS011;15571;50.974;13.936;2022-10-16T23:15:42;5.97;;;5.10;;
28309;SDS011;15571;50.974;13.936;2022-10-16T23:18:48;8.98;;;4.75;;
28309;SDS011;15571;50.974;13.936;2022-10-16T23:21:55;6.50;;;5.05;;
28309;SDS011;15571;50.974;13.936;2022-10-16T23:24:57;8.65;;;5.57;;
28309;SDS011;15571;50.974;13.936;2022-10-16T23:28:02;7.32;;;5.10;;
28309;SDS011;15571;50.974;13.936;2022-10-16T23:31:07;8.60;;;5.22;;
28309;SDS011;15571;50.974;13.936;2022-10-16T23:34:13;8.82;;;5.40;;
28309;SDS011;15571;50.974;13.936;2022-10-16T23:37:15;7.47;;;5.82;;
28309;SDS011;15571;50.974;13.936;2022-10-16T23:40:18;7.03;;;5.45;;
28309;SDS011;15571;50.974;13.936;2022-10-16T23:43:22;6.78;;;5.38;;
28309;SDS011;15571;50.974;13.936;2022-10-16T23:46:44;7.45;;;5.53;;
28309;SDS011;15571;50.974;13.936;2022-10-16T23:49:47;8.43;;;5.45;;
28309;SDS011;15571;50.974;13.936;2022-10-16T23:52:49;8.05;;;5.97;;
28309;SDS011;15571;50.974;13.936;2022-10-16T23:55:52;8.88;;;6.65;;
28309;SDS011;15571;50.974;13.936;2022-10-16T23:58:59;9.10;;;6.65;;
